createdAt,value
2024-03-08T00:00:10.610Z,24.98
2024-03-08T00:02:39.799Z,24.62
2024-03-08T00:05:07.331Z,24.93
2024-03-08T00:07:34.190Z,24.78
2024-03-08T00:10:00.967Z,25.18
2024-03-08T00:12:27.712Z,25.26
2024-03-08T00:14:54.466Z,25.23
2024-03-08T00:17:21.432Z,25.49
2024-03-08T00:19:49.566Z,25.17
2024-03-08T00:22:16.346Z,25.66
2024-03-08T00:24:43.121Z,25.44
2024-03-08T00:27:09.985Z,25.22
2024-03-08T00:29:36.825Z,25.47
2024-03-08T00:32:03.607Z,25.35
2024-03-08T00:34:30.334Z,25.61
2024-03-08T00:36:58.380Z,25.26
2024-03-08T00:39:25.216Z,26.38
2024-03-08T00:41:51.986Z,26.30
2024-03-08T00:44:18.788Z,25.34
2024-03-08T00:46:45.495Z,26.18
2024-03-08T00:49:12.215Z,26.24
2024-03-08T00:51:38.959Z,27.18
2024-03-08T00:54:07.205Z,27.39
2024-03-08T00:56:34.039Z,27.34
2024-03-08T00:59:00.787Z,26.89
2024-03-08T01:01:27.588Z,26.39
2024-03-08T01:03:54.391Z,26.54
2024-03-08T01:06:21.089Z,26.36
2024-03-08T01:08:47.852Z,26.95
2024-03-08T01:11:16.000Z,27.17
2024-03-08T01:13:42.793Z,26.08
2024-03-08T01:16:10.588Z,26.01
2024-03-08T01:18:38.322Z,25.91
2024-03-08T01:21:05.658Z,25.36
2024-03-08T01:23:32.428Z,26.51
2024-03-08T01:25:59.164Z,26.27
2024-03-08T01:28:27.245Z,26.68
2024-03-08T01:30:53.946Z,26.12
2024-03-08T01:33:20.697Z,26.38
2024-03-08T01:35:47.533Z,26.81
2024-03-08T01:38:14.228Z,25.64
2024-03-08T01:40:40.986Z,26.45
2024-03-08T01:43:19.329Z,26.58
2024-03-08T01:45:47.432Z,26.14
2024-03-08T01:48:14.976Z,25.44
2024-03-08T01:50:41.817Z,25.52
2024-03-08T01:53:08.699Z,25.93
2024-03-08T01:55:35.444Z,25.14
2024-03-08T01:58:02.162Z,25.37
2024-03-08T02:00:28.900Z,24.82
2024-03-08T02:02:56.979Z,25.40
2024-03-08T02:05:23.696Z,25.38
2024-03-08T02:07:50.466Z,24.55
2024-03-08T02:10:17.149Z,24.56
2024-03-08T02:12:43.917Z,24.28
2024-03-08T02:15:10.782Z,24.91
2024-03-08T02:17:37.703Z,24.49
2024-03-08T02:20:06.679Z,24.74
2024-03-08T02:22:34.734Z,25.05
2024-03-08T02:25:01.547Z,24.88
2024-03-08T02:27:28.259Z,24.43
2024-03-08T02:29:55.865Z,24.93
2024-03-08T02:32:22.663Z,24.02
2024-03-08T02:34:49.426Z,24.25
2024-03-08T02:37:16.131Z,24.66
2024-03-08T02:39:44.234Z,24.35
2024-03-08T02:42:11.014Z,23.65
2024-03-08T02:44:37.901Z,24.00
2024-03-08T02:47:04.914Z,23.73
2024-03-08T02:49:31.760Z,23.31
2024-03-08T02:51:58.517Z,23.84
2024-03-08T02:54:25.184Z,23.66
2024-03-08T02:56:53.366Z,24.44
2024-03-08T02:59:20.058Z,24.48
2024-03-08T03:01:46.783Z,24.00
2024-03-08T03:04:13.545Z,24.17
2024-03-08T03:06:40.268Z,24.05
2024-03-08T03:09:07.099Z,23.96
2024-03-08T03:11:34.049Z,25.05
2024-03-08T03:14:02.192Z,24.68
2024-03-08T03:16:28.910Z,24.63
2024-03-08T03:18:55.708Z,24.75
2024-03-08T03:21:22.494Z,25.82
2024-03-08T03:23:49.303Z,26.17
2024-03-08T03:26:16.211Z,26.38
2024-03-08T03:28:42.927Z,26.78
2024-03-08T03:31:11.095Z,28.13
2024-03-08T03:33:37.970Z,27.68
2024-03-08T03:36:05.632Z,28.22
2024-03-08T03:38:32.383Z,28.91
2024-03-08T03:40:59.105Z,28.14
2024-03-08T03:43:25.778Z,28.74
2024-03-08T03:45:52.513Z,29.27
2024-03-08T03:48:20.648Z,27.58
2024-03-08T03:50:47.447Z,27.50
2024-03-08T03:53:14.197Z,28.40
2024-03-08T03:55:41.920Z,29.20
2024-03-08T03:58:08.918Z,29.97
2024-03-08T04:00:35.734Z,30.35
2024-03-08T04:03:02.649Z,30.30
2024-03-08T04:05:30.894Z,30.18
2024-03-08T04:07:57.621Z,29.71
2024-03-08T04:10:24.370Z,29.28
2024-03-08T04:12:51.070Z,28.20
2024-03-08T04:15:17.854Z,28.14
2024-03-08T04:17:44.767Z,26.77
2024-03-08T04:20:12.071Z,26.13
2024-03-08T04:22:40.431Z,25.19
2024-03-08T04:25:07.828Z,24.98
2024-03-08T04:27:34.565Z,23.91
2024-03-08T04:30:01.672Z,23.20
2024-03-08T04:32:28.605Z,22.22
2024-03-08T04:34:55.545Z,22.63
2024-03-08T04:37:22.286Z,22.88
2024-03-08T04:39:50.335Z,21.97
2024-03-08T04:42:17.248Z,22.79
2024-03-08T04:44:44.081Z,22.43
2024-03-08T04:47:10.838Z,21.74
2024-03-08T04:49:37.585Z,21.63
2024-03-08T04:52:04.285Z,21.28
2024-03-08T04:54:31.144Z,20.86
2024-03-08T04:56:59.267Z,20.41
2024-03-08T04:59:26.031Z,19.99
2024-03-08T05:01:52.726Z,20.82
2024-03-08T05:04:19.424Z,20.56
2024-03-08T05:06:46.128Z,20.84
2024-03-08T05:09:12.888Z,20.11
2024-03-08T05:11:39.662Z,20.44
2024-03-08T05:14:07.715Z,21.34
2024-03-08T05:16:34.438Z,21.04
2024-03-08T05:19:01.230Z,20.68
2024-03-08T05:21:27.924Z,20.88
2024-03-08T05:23:54.712Z,21.83
2024-03-08T05:26:21.422Z,22.33
2024-03-08T05:28:48.210Z,21.90
2024-03-08T05:31:20.680Z,21.61
2024-03-08T05:33:47.524Z,22.07
2024-03-08T05:36:14.288Z,22.19
2024-03-08T05:38:41.047Z,22.85
2024-03-08T05:41:07.790Z,22.58
2024-03-08T05:43:34.530Z,22.47
2024-03-08T05:46:01.292Z,22.44
2024-03-08T05:48:29.462Z,22.98
2024-03-08T05:50:56.221Z,22.62
2024-03-08T05:53:22.992Z,22.44
2024-03-08T05:55:49.707Z,22.20
2024-03-08T05:58:16.532Z,22.20
2024-03-08T06:00:43.332Z,22.36
2024-03-08T06:03:10.100Z,22.39
2024-03-08T06:05:38.507Z,23.44
2024-03-08T06:08:05.976Z,22.43
2024-03-08T06:10:32.743Z,22.56
2024-03-08T06:12:59.453Z,22.95
2024-03-08T06:15:26.292Z,22.14
2024-03-08T06:17:53.081Z,22.54
2024-03-08T06:20:19.836Z,22.58
2024-03-08T06:22:47.912Z,22.53
2024-03-08T06:25:14.657Z,22.36
2024-03-08T06:27:41.389Z,21.71
2024-03-08T06:30:08.894Z,21.22
2024-03-08T06:32:35.743Z,21.23
2024-03-08T06:35:02.727Z,21.81
2024-03-08T06:37:29.426Z,21.63
2024-03-08T06:39:57.551Z,22.03
2024-03-08T06:42:24.329Z,21.75
2024-03-08T06:44:51.234Z,20.97
2024-03-08T06:47:17.996Z,21.43
2024-03-08T06:49:44.765Z,21.11
2024-03-08T06:52:11.588Z,21.09
2024-03-08T06:54:38.368Z,20.34
2024-03-08T06:57:06.656Z,20.19
2024-03-08T06:59:33.505Z,20.81
2024-03-08T07:02:00.334Z,23.80
2024-03-08T07:04:27.156Z,22.23
2024-03-08T07:06:53.959Z,20.35
2024-03-08T07:09:20.696Z,20.47
2024-03-08T07:11:47.574Z,20.34
2024-03-08T07:14:15.736Z,18.95
2024-03-08T07:16:42.608Z,19.07
2024-03-08T07:19:09.365Z,18.62
2024-03-08T07:21:36.088Z,20.26
2024-03-08T07:24:02.865Z,19.61
2024-03-08T07:26:29.561Z,19.72
2024-03-08T07:28:56.280Z,18.99
2024-03-08T07:31:24.341Z,19.38
2024-03-08T07:33:51.307Z,19.08
2024-03-08T07:36:18.169Z,19.10
2024-03-08T07:38:44.987Z,19.09
2024-03-08T07:41:13.127Z,18.80
2024-03-08T07:43:41.036Z,19.30
2024-03-08T07:46:07.763Z,18.62
2024-03-08T07:48:36.085Z,18.53
2024-03-08T07:51:02.910Z,18.47
2024-03-08T07:53:29.600Z,18.83
2024-03-08T07:55:56.409Z,19.24
2024-03-08T07:58:23.222Z,19.11
2024-03-08T08:00:49.936Z,19.56
2024-03-08T08:03:16.728Z,18.86
2024-03-08T08:05:44.798Z,18.18
2024-03-08T08:08:11.724Z,18.81
2024-03-08T08:10:38.844Z,18.76
2024-03-08T08:13:06.193Z,18.26
2024-03-08T08:15:33.112Z,18.58
2024-03-08T08:17:59.849Z,18.22
2024-03-08T08:20:26.643Z,18.87
2024-03-08T08:22:54.761Z,17.83
2024-03-08T08:25:21.888Z,18.80
2024-03-08T08:27:48.734Z,18.31
2024-03-08T08:30:15.828Z,17.63
2024-03-08T08:32:42.594Z,17.33
2024-03-08T08:35:09.420Z,17.68
2024-03-08T08:37:36.249Z,17.33
2024-03-08T08:40:05.336Z,17.77
2024-03-08T08:42:32.104Z,18.15
2024-03-08T08:45:03.006Z,18.26
2024-03-08T08:47:35.816Z,18.75
2024-03-08T08:50:02.672Z,18.09
2024-03-08T08:52:29.470Z,17.69
2024-03-08T08:54:56.264Z,18.53
2024-03-08T08:57:24.417Z,18.95
2024-03-08T08:59:51.130Z,18.85
2024-03-08T09:02:18.519Z,18.50
2024-03-08T09:04:45.724Z,17.80
2024-03-08T09:07:12.462Z,17.14
2024-03-08T09:09:39.147Z,17.61
2024-03-08T09:12:06.419Z,20.03
2024-03-08T09:14:34.823Z,31.73
2024-03-08T09:17:01.720Z,17.66
2024-03-08T09:19:28.456Z,17.08
2024-03-08T09:21:55.224Z,17.07
2024-03-08T09:24:21.942Z,16.57
2024-03-08T09:26:48.684Z,16.35
2024-03-08T09:29:15.401Z,15.94
2024-03-08T09:31:43.520Z,15.16
2024-03-08T09:34:13.455Z,14.67
2024-03-08T09:36:44.066Z,14.60
2024-03-08T09:39:10.757Z,13.90
2024-03-08T09:41:37.504Z,14.86
2024-03-08T09:44:04.705Z,15.28
2024-03-08T09:46:31.476Z,15.08
2024-03-08T09:48:59.521Z,15.28
2024-03-08T09:51:28.782Z,14.76
2024-03-08T09:53:55.484Z,14.69
2024-03-08T09:56:22.597Z,15.15
2024-03-08T09:58:49.436Z,15.57
2024-03-08T10:01:16.257Z,16.04
2024-03-08T10:03:43.034Z,16.23
2024-03-08T10:06:11.077Z,14.99
2024-03-08T10:08:37.783Z,14.80
2024-03-08T10:11:04.840Z,14.50
2024-03-08T10:13:31.858Z,14.40
2024-03-08T10:15:58.584Z,14.83
2024-03-08T10:18:25.324Z,14.95
2024-03-08T10:21:14.152Z,14.91
2024-03-08T10:23:40.947Z,14.50
2024-03-08T10:26:11.706Z,14.18
2024-03-08T10:28:38.449Z,13.86
2024-03-08T10:31:05.174Z,13.70
2024-03-08T10:33:31.942Z,13.19
2024-03-08T10:35:58.638Z,13.24
2024-03-08T10:38:26.733Z,13.38
2024-03-08T10:40:53.533Z,13.86
2024-03-08T10:43:26.859Z,13.76
2024-03-08T10:45:57.743Z,27.06
2024-03-08T10:48:28.416Z,15.17
2024-03-08T10:50:55.174Z,13.59
2024-03-08T10:53:21.968Z,13.35
2024-03-08T10:55:50.078Z,13.54
2024-03-08T10:58:16.954Z,13.56
2024-03-08T11:00:43.752Z,13.52
2024-03-08T11:03:30.958Z,13.44
2024-03-08T11:05:57.661Z,13.55
2024-03-08T11:08:24.458Z,14.11
2024-03-08T11:10:53.544Z,14.67
2024-03-08T11:13:35.871Z,15.74
2024-03-08T11:16:02.803Z,15.44
2024-03-08T11:18:29.921Z,15.42
2024-03-08T11:20:56.800Z,15.50
2024-03-08T11:23:23.668Z,15.25
2024-03-08T11:25:51.754Z,14.72
2024-03-08T11:28:19.643Z,14.92
2024-03-08T11:30:47.214Z,14.70
2024-03-08T11:33:14.068Z,14.79
2024-03-08T11:35:41.059Z,14.94
2024-03-08T11:38:09.018Z,14.96
2024-03-08T11:40:36.629Z,15.28
2024-03-08T11:43:05.128Z,15.25
2024-03-08T11:45:31.889Z,15.37
2024-03-08T11:47:59.060Z,14.75
2024-03-08T11:50:25.851Z,15.41
2024-03-08T11:52:52.615Z,14.55
2024-03-08T11:55:19.466Z,14.92
2024-03-08T11:57:46.396Z,15.21
2024-03-08T12:00:17.945Z,14.26
2024-03-08T12:02:44.749Z,13.71
2024-03-08T12:05:11.561Z,14.39
2024-03-08T12:07:38.431Z,14.63
2024-03-08T12:10:18.332Z,15.28
2024-03-08T12:12:45.483Z,15.30
2024-03-08T12:15:12.265Z,15.89
2024-03-08T12:17:40.850Z,15.46
2024-03-08T12:20:17.304Z,14.87
2024-03-08T12:22:44.182Z,14.55
2024-03-08T12:25:11.913Z,14.01
2024-03-08T12:27:38.835Z,15.23
2024-03-08T12:30:20.159Z,14.98
2024-03-08T12:32:52.284Z,15.53
2024-03-08T12:35:19.123Z,15.80
2024-03-08T12:37:45.938Z,15.37
2024-03-08T12:40:12.816Z,15.57
2024-03-08T12:42:39.559Z,16.24
2024-03-08T12:45:07.407Z,16.37
2024-03-08T12:47:34.180Z,16.35
2024-03-08T12:50:02.331Z,16.66
2024-03-08T12:52:29.198Z,16.16
2024-03-08T12:54:56.009Z,16.82
2024-03-08T12:57:22.785Z,16.88
2024-03-08T12:59:49.644Z,16.98
2024-03-08T13:02:16.569Z,17.00
2024-03-08T13:04:43.483Z,17.14
2024-03-08T13:07:11.646Z,17.22
2024-03-08T13:09:38.345Z,18.01
2024-03-08T13:12:05.754Z,17.99
2024-03-08T13:14:32.504Z,18.32
2024-03-08T13:16:59.289Z,18.60
2024-03-08T13:19:26.163Z,18.52
2024-03-08T13:21:52.989Z,18.53
2024-03-08T13:24:21.077Z,18.26
2024-03-08T13:26:48.457Z,18.09
2024-03-08T13:29:15.158Z,18.40
2024-03-08T13:31:41.904Z,18.56
2024-03-08T13:34:08.596Z,17.82
2024-03-08T13:36:35.302Z,18.44
2024-03-08T13:39:02.002Z,18.86
2024-03-08T13:41:31.677Z,18.90
2024-03-08T13:43:59.854Z,18.64
2024-03-08T13:46:26.752Z,18.47
2024-03-08T13:48:53.528Z,18.95
2024-03-08T13:51:20.276Z,19.03
2024-03-08T13:53:47.063Z,19.30
2024-03-08T13:56:13.792Z,19.99
2024-03-08T13:58:42.098Z,19.08
2024-03-08T14:01:08.929Z,18.76
2024-03-08T14:03:35.662Z,19.74
2024-03-08T14:06:02.475Z,20.16
2024-03-08T14:08:29.212Z,20.37
2024-03-08T14:10:56.149Z,20.03
2024-03-08T14:13:22.952Z,20.10
2024-03-08T14:15:50.972Z,20.13
2024-03-08T14:18:17.856Z,19.99
2024-03-08T14:20:44.542Z,20.44
2024-03-08T14:23:11.735Z,20.47
2024-03-08T14:25:38.579Z,20.05
2024-03-08T14:28:05.720Z,20.68
2024-03-08T14:30:32.443Z,20.67
2024-03-08T14:33:00.628Z,20.66
2024-03-08T14:35:27.383Z,20.89
2024-03-08T14:37:54.219Z,22.71
2024-03-08T14:40:21.010Z,22.82
2024-03-08T14:42:47.762Z,23.86
2024-03-08T14:45:14.577Z,24.64
2024-03-08T14:47:41.429Z,25.81
2024-03-08T14:50:10.248Z,26.50
2024-03-08T14:52:37.085Z,27.26
2024-03-08T14:55:04.244Z,26.96
2024-03-08T14:57:30.969Z,27.37
2024-03-08T14:59:57.712Z,27.20
2024-03-08T15:02:24.417Z,26.83
2024-03-08T15:04:51.141Z,26.21
2024-03-08T15:07:19.655Z,26.52
2024-03-08T15:09:46.369Z,26.66
2024-03-08T15:12:13.120Z,26.90
2024-03-08T15:14:41.033Z,26.74
2024-03-08T15:17:07.788Z,26.05
2024-03-08T15:19:34.630Z,26.15
2024-03-08T15:22:01.355Z,25.61
2024-03-08T15:24:29.410Z,25.59
2024-03-08T15:26:56.126Z,27.14
2024-03-08T15:29:22.858Z,27.52
2024-03-08T15:31:49.600Z,27.10
2024-03-08T15:34:16.383Z,27.68
2024-03-08T15:36:43.059Z,28.51
2024-03-08T15:39:09.747Z,28.20
2024-03-08T15:41:37.802Z,27.99
2024-03-08T15:44:04.618Z,27.56
2024-03-08T15:46:31.526Z,28.06
2024-03-08T15:48:58.426Z,27.16
2024-03-08T15:51:25.137Z,26.69
2024-03-08T15:53:51.879Z,27.26
2024-03-08T15:56:18.592Z,27.39
2024-03-08T15:58:46.687Z,27.27
2024-03-08T16:01:13.936Z,27.37
2024-03-08T16:03:40.637Z,27.20
2024-03-08T16:06:07.737Z,27.15
2024-03-08T16:08:34.644Z,28.04
2024-03-08T16:11:01.421Z,28.64
2024-03-08T16:13:28.361Z,27.09
2024-03-08T16:15:56.948Z,27.46
2024-03-08T16:18:23.968Z,27.93
2024-03-08T16:20:50.852Z,27.90
2024-03-08T16:23:17.661Z,26.72
2024-03-08T16:25:44.452Z,26.72
2024-03-08T16:28:11.482Z,26.99
2024-03-08T16:30:38.296Z,26.19
2024-03-08T16:33:06.558Z,25.93
2024-03-08T16:35:33.337Z,24.96
2024-03-08T16:38:00.169Z,24.51
2024-03-08T16:40:27.012Z,23.81
2024-03-08T16:42:53.810Z,22.74
2024-03-08T16:45:20.820Z,22.71
2024-03-08T16:47:47.756Z,22.95
2024-03-08T16:50:17.866Z,23.45
2024-03-08T16:52:44.626Z,23.20
2024-03-08T16:55:11.906Z,22.68
2024-03-08T16:57:38.686Z,23.78
2024-03-08T17:00:06.865Z,23.25
2024-03-08T17:02:33.710Z,23.39
2024-03-08T17:05:00.464Z,23.07
2024-03-08T17:07:28.630Z,22.60
2024-03-08T17:09:55.366Z,23.14
2024-03-08T17:12:22.102Z,22.87
2024-03-08T17:14:48.841Z,23.01
2024-03-08T17:17:15.748Z,22.80
2024-03-08T17:19:42.538Z,22.45
2024-03-08T17:22:09.497Z,23.68
2024-03-08T17:24:37.690Z,23.73
2024-03-08T17:27:04.425Z,23.90
2024-03-08T17:29:31.224Z,23.33
2024-03-08T17:31:58.109Z,24.09
2024-03-08T17:34:24.889Z,24.24
2024-03-08T17:36:51.569Z,24.15
2024-03-08T17:39:18.362Z,23.97
2024-03-08T17:41:47.131Z,23.76
2024-03-08T17:44:13.908Z,24.09
2024-03-08T17:46:40.701Z,23.30
2024-03-08T17:49:07.506Z,24.04
2024-03-08T17:51:35.610Z,23.95
2024-03-08T17:54:02.368Z,24.04
2024-03-08T17:56:29.044Z,23.69
2024-03-08T17:58:57.163Z,22.50
2024-03-08T18:01:24.121Z,23.52
2024-03-08T18:03:50.931Z,22.69
2024-03-08T18:06:17.674Z,23.51
2024-03-08T18:08:44.403Z,23.25
2024-03-08T18:11:11.208Z,23.00
2024-03-08T18:13:38.126Z,23.45
2024-03-08T18:16:07.371Z,23.41
2024-03-08T18:18:34.112Z,25.22
2024-03-08T18:21:00.868Z,24.14
2024-03-08T18:23:27.930Z,24.60
2024-03-08T18:25:54.722Z,24.17
2024-03-08T18:28:21.468Z,25.95
2024-03-08T18:30:48.412Z,26.28
2024-03-08T18:33:16.646Z,26.28
2024-03-08T18:35:43.387Z,25.93
2024-03-08T18:38:10.316Z,26.76
2024-03-08T18:40:37.529Z,26.06
2024-03-08T18:43:04.596Z,26.52
2024-03-08T18:45:31.290Z,26.99
2024-03-08T18:47:58.122Z,26.89
2024-03-08T18:50:26.874Z,27.52
2024-03-08T18:52:53.713Z,27.30
2024-03-08T18:55:20.806Z,27.63
2024-03-08T18:57:47.786Z,29.02
2024-03-08T19:00:15.417Z,28.88
2024-03-08T19:02:42.196Z,29.42
2024-03-08T19:05:09.066Z,29.18
2024-03-08T19:07:37.157Z,29.54
2024-03-08T19:10:04.348Z,28.91
2024-03-08T19:12:31.148Z,28.87
2024-03-08T19:14:57.930Z,28.21
2024-03-08T19:17:24.696Z,27.69
2024-03-08T19:19:51.400Z,28.05
2024-03-08T19:22:18.178Z,27.55
2024-03-08T19:24:46.266Z,27.59
2024-03-08T19:27:12.999Z,28.06
2024-03-08T19:29:39.718Z,29.16
2024-03-08T19:32:07.497Z,29.24
2024-03-08T19:34:34.282Z,28.74
2024-03-08T19:37:01.062Z,28.43
2024-03-08T19:39:27.810Z,27.83
2024-03-08T19:41:55.960Z,27.40
2024-03-08T19:44:22.729Z,27.83
2024-03-08T19:46:49.448Z,28.28
2024-03-08T19:49:16.303Z,27.56
2024-03-08T19:51:42.990Z,29.02
2024-03-08T19:54:09.745Z,28.34
2024-03-08T19:56:36.431Z,27.25
2024-03-08T19:59:04.570Z,26.38
2024-03-08T20:01:31.423Z,28.09
2024-03-08T20:03:58.175Z,28.49
2024-03-08T20:06:24.926Z,27.36
2024-03-08T20:08:51.688Z,27.31
2024-03-08T20:11:18.452Z,27.76
2024-03-08T20:13:45.361Z,27.29
2024-03-08T20:16:13.476Z,28.36
2024-03-08T20:18:40.354Z,27.42
2024-03-08T20:21:07.135Z,26.88
2024-03-08T20:23:33.904Z,26.37
2024-03-08T20:26:00.648Z,27.43
2024-03-08T20:28:27.422Z,27.67
2024-03-08T20:30:54.125Z,26.96
2024-03-08T20:33:22.204Z,27.91
2024-03-08T20:35:48.935Z,27.42
2024-03-08T20:38:15.642Z,26.62
2024-03-08T20:40:42.476Z,27.06
2024-03-08T20:43:09.408Z,27.27
2024-03-08T20:45:36.156Z,27.93
2024-03-08T20:48:02.904Z,27.59
2024-03-08T20:50:30.976Z,27.72
2024-03-08T20:52:58.062Z,27.52
2024-03-08T20:55:24.862Z,27.29
2024-03-08T20:57:52.336Z,28.49
2024-03-08T21:00:19.924Z,28.19
2024-03-08T21:02:46.998Z,28.34
2024-03-08T21:05:13.801Z,27.64
2024-03-08T21:07:41.884Z,28.63
2024-03-08T21:10:08.940Z,29.07
2024-03-08T21:12:35.693Z,28.51
2024-03-08T21:15:02.443Z,28.50
2024-03-08T21:17:29.252Z,28.81
2024-03-08T21:19:55.991Z,28.49
2024-03-08T21:22:22.770Z,29.19
2024-03-08T21:24:50.941Z,29.57
2024-03-08T21:27:17.713Z,28.94
2024-03-08T21:29:44.413Z,28.89
2024-03-08T21:32:11.320Z,29.26
2024-03-08T21:34:40.029Z,29.32
2024-03-08T21:37:06.776Z,29.34
2024-03-08T21:39:33.468Z,30.39
2024-03-08T21:42:01.527Z,29.93
2024-03-08T21:44:28.328Z,30.23
2024-03-08T21:46:55.115Z,30.11
2024-03-08T21:49:21.882Z,29.47
2024-03-08T21:51:48.773Z,29.35
2024-03-08T21:54:15.566Z,31.44
2024-03-08T21:56:42.363Z,29.65
2024-03-08T21:59:10.601Z,30.13
2024-03-08T22:01:37.610Z,30.24
2024-03-08T22:04:04.714Z,29.62
2024-03-08T22:06:31.498Z,29.15
2024-03-08T22:08:58.217Z,29.56
2024-03-08T22:11:25.114Z,29.83
2024-03-08T22:13:51.955Z,30.26
2024-03-08T22:16:20.135Z,30.96
2024-03-08T22:18:47.940Z,30.67
2024-03-08T22:21:14.696Z,29.87
2024-03-08T22:23:41.466Z,29.48
2024-03-08T22:26:08.367Z,30.38
2024-03-08T22:28:35.292Z,30.85
2024-03-08T22:31:02.137Z,30.25
2024-03-08T22:33:30.209Z,30.23
2024-03-08T22:35:56.932Z,29.98
2024-03-08T22:38:23.629Z,30.38
2024-03-08T22:40:50.409Z,29.63
2024-03-08T22:43:17.168Z,30.10
2024-03-08T22:45:43.964Z,29.87
2024-03-08T22:48:10.730Z,30.41
2024-03-08T22:50:38.780Z,31.35
2024-03-08T22:53:05.956Z,30.38
2024-03-08T22:55:32.714Z,30.48
2024-03-08T22:57:59.538Z,30.98
2024-03-08T23:00:27.533Z,32.01
2024-03-08T23:02:55.787Z,31.48
2024-03-08T23:05:22.934Z,30.91
2024-03-08T23:07:51.123Z,31.48
2024-03-08T23:10:17.872Z,30.87
2024-03-08T23:12:44.723Z,31.92
2024-03-08T23:15:11.773Z,32.16
2024-03-08T23:17:41.199Z,31.68
2024-03-08T23:20:08.914Z,31.09
2024-03-08T23:22:35.652Z,30.81
2024-03-08T23:25:04.404Z,31.06
2024-03-08T23:27:31.129Z,32.05
2024-03-08T23:29:57.867Z,31.51
2024-03-08T23:32:24.638Z,32.59
2024-03-08T23:34:51.360Z,34.91
2024-03-08T23:37:18.075Z,33.48
2024-03-08T23:39:44.764Z,33.35
2024-03-08T23:42:12.889Z,34.34
2024-03-08T23:44:41.890Z,33.38
2024-03-08T23:47:08.817Z,32.87
2024-03-08T23:49:35.542Z,32.93
2024-03-08T23:52:02.310Z,32.67
2024-03-08T23:54:29.090Z,32.98
2024-03-08T23:56:55.892Z,32.36
2024-03-08T23:59:23.979Z,32.41
